createdAt,value
2023-03-11T00:00:48.884Z,1.60
2023-03-11T00:03:18.950Z,1.97
2023-03-11T00:05:47.302Z,1.50
2023-03-11T00:08:18.197Z,1.43
2023-03-11T00:10:48.205Z,1.50
2023-03-11T00:13:17.086Z,1.80
2023-03-11T00:15:48.448Z,1.30
2023-03-11T00:18:17.525Z,1.97
2023-03-11T00:20:47.377Z,1.60
2023-03-11T00:23:16.103Z,2.00
2023-03-11T00:25:45.647Z,1.90
2023-03-11T00:28:15.260Z,2.40
2023-03-11T00:30:45.277Z,1.83
2023-03-11T00:33:15.225Z,2.70
2023-03-11T00:35:44.378Z,2.73
2023-03-11T00:38:15.391Z,2.63
2023-03-11T00:40:44.428Z,1.70
2023-03-11T00:43:12.843Z,1.53
2023-03-11T00:45:41.423Z,1.90
2023-03-11T00:48:09.942Z,1.70
2023-03-11T00:50:38.422Z,1.33
2023-03-11T00:53:06.606Z,1.67
2023-03-11T00:55:35.957Z,1.57
2023-03-11T00:58:08.024Z,1.50
2023-03-11T01:00:41.522Z,1.85
2023-03-11T01:03:09.756Z,1.53
2023-03-11T01:05:37.802Z,1.30
2023-03-11T01:08:10.554Z,1.20
2023-03-11T01:10:38.671Z,1.37
2023-03-11T01:13:06.639Z,1.17
2023-03-11T01:15:38.519Z,1.80
2023-03-11T01:18:06.916Z,1.80
2023-03-11T01:20:36.907Z,1.60
2023-03-11T01:23:06.695Z,1.37
2023-03-11T01:25:35.021Z,1.40
2023-03-11T01:28:03.086Z,1.73
2023-03-11T01:30:31.595Z,1.70
2023-03-11T01:32:59.575Z,1.27
2023-03-11T01:35:29.447Z,1.60
2023-03-11T01:37:58.693Z,1.83
2023-03-11T01:40:33.755Z,1.83
2023-03-11T01:43:09.882Z,2.00
2023-03-11T01:46:02.335Z,1.87
2023-03-11T01:48:31.200Z,2.40
2023-03-11T01:50:59.582Z,1.83
2023-03-11T01:53:27.636Z,1.60
2023-03-11T01:56:05.997Z,1.13
2023-03-11T01:58:39.326Z,1.00
2023-03-11T02:01:07.884Z,1.10
2023-03-11T02:03:40.197Z,1.00
2023-03-11T02:06:15.587Z,1.17
2023-03-11T02:08:47.912Z,1.00
2023-03-11T02:11:29.784Z,1.30
2023-03-11T02:14:03.321Z,1.40
2023-03-11T02:16:32.091Z,1.00
2023-03-11T02:19:09.907Z,0.90
2023-03-11T02:21:38.233Z,1.40
2023-03-11T02:24:24.208Z,1.17
2023-03-11T02:27:10.902Z,1.20
2023-03-11T02:29:40.792Z,1.10
2023-03-11T02:32:10.917Z,1.00
2023-03-11T02:34:43.461Z,1.10
2023-03-11T02:37:14.888Z,1.20
2023-03-11T02:39:52.261Z,1.38
2023-03-11T02:42:27.382Z,1.17
2023-03-11T02:45:10.644Z,1.00
2023-03-11T02:47:40.553Z,1.33
2023-03-11T02:50:15.209Z,1.40
2023-03-11T02:52:43.494Z,1.50
2023-03-11T02:55:12.088Z,1.40
2023-03-11T02:57:41.110Z,1.30
2023-03-11T03:00:14.051Z,1.30
2023-03-11T03:02:46.691Z,1.40
2023-03-11T03:05:15.162Z,1.00
2023-03-11T03:07:43.243Z,1.23
2023-03-11T03:10:11.955Z,1.20
2023-03-11T03:12:39.836Z,1.30
2023-03-11T03:15:12.673Z,1.40
2023-03-11T03:17:40.615Z,1.30
2023-03-11T03:20:11.748Z,1.10
2023-03-11T03:22:42.986Z,1.20
2023-03-11T03:25:13.043Z,1.70
2023-03-11T03:27:41.541Z,1.10
2023-03-11T03:30:12.593Z,1.70
2023-03-11T03:32:41.172Z,1.40
2023-03-11T03:35:13.008Z,1.60
2023-03-11T03:38:03.759Z,1.23
2023-03-11T03:40:32.641Z,1.10
2023-03-11T03:43:03.819Z,1.13
2023-03-11T03:45:32.777Z,1.50
2023-03-11T03:48:00.930Z,1.37
2023-03-11T03:50:32.776Z,1.30
2023-03-11T03:53:00.873Z,1.10
2023-03-11T03:55:28.882Z,1.10
2023-03-11T03:57:58.485Z,1.23
2023-03-11T04:00:30.803Z,1.30
2023-03-11T04:03:03.111Z,0.77
2023-03-11T04:05:46.357Z,1.40
2023-03-11T04:08:15.653Z,1.27
2023-03-11T04:10:44.744Z,1.20
2023-03-11T04:13:12.719Z,0.97
2023-03-11T04:15:42.227Z,1.50
2023-03-11T04:18:10.809Z,1.20
2023-03-11T04:20:42.090Z,1.20
2023-03-11T04:23:10.909Z,1.50
2023-03-11T04:25:39.011Z,1.30
2023-03-11T04:28:07.074Z,1.13
2023-03-11T04:30:36.994Z,1.30
2023-03-11T04:33:04.897Z,1.17
2023-03-11T04:35:33.537Z,1.43
2023-03-11T04:38:01.638Z,1.30
2023-03-11T04:40:29.700Z,1.10
2023-03-11T04:42:59.814Z,1.30
2023-03-11T04:45:27.745Z,1.50
2023-03-11T04:47:58.370Z,1.13
2023-03-11T04:50:26.573Z,1.20
2023-03-11T04:52:56.597Z,1.20
2023-03-11T04:55:25.291Z,0.90
2023-03-11T04:57:53.764Z,1.30
2023-03-11T05:00:24.803Z,1.03
2023-03-11T05:03:00.778Z,1.10
2023-03-11T05:05:29.051Z,1.20
2023-03-11T05:07:56.977Z,1.17
2023-03-11T05:10:25.159Z,1.40
2023-03-11T05:12:56.904Z,1.20
2023-03-11T05:15:31.222Z,1.30
2023-03-11T05:18:01.640Z,1.30
2023-03-11T05:20:31.456Z,1.13
2023-03-11T05:22:59.785Z,1.40
2023-03-11T05:25:32.855Z,1.00
2023-03-11T05:28:00.934Z,1.00
2023-03-11T05:30:29.788Z,1.50
2023-03-11T05:32:59.027Z,1.63
2023-03-11T05:35:27.221Z,1.20
2023-03-11T05:37:57.752Z,1.27
2023-03-11T05:40:29.080Z,1.70
2023-03-11T05:42:57.106Z,1.50
2023-03-11T05:45:26.011Z,1.17
2023-03-11T05:47:55.764Z,1.40
2023-03-11T05:50:23.690Z,1.13
2023-03-11T05:52:52.644Z,1.33
2023-03-11T05:55:22.020Z,1.37
2023-03-11T05:57:52.542Z,1.30
2023-03-11T06:00:21.321Z,1.27
2023-03-11T06:02:52.887Z,1.20
2023-03-11T06:05:21.405Z,1.20
2023-03-11T06:07:51.491Z,1.10
2023-03-11T06:10:20.164Z,1.33
2023-03-11T06:12:48.128Z,1.20
2023-03-11T06:15:24.483Z,1.30
2023-03-11T06:17:53.789Z,1.40
2023-03-11T06:20:21.961Z,1.57
2023-03-11T06:22:50.181Z,1.30
2023-03-11T06:25:18.612Z,1.60
2023-03-11T06:27:53.342Z,1.60
2023-03-11T06:30:23.624Z,2.13
2023-03-11T06:32:59.170Z,1.60
2023-03-11T06:35:29.629Z,1.50
2023-03-11T06:38:00.405Z,1.53
2023-03-11T06:40:28.445Z,1.40
2023-03-11T06:42:56.322Z,1.70
2023-03-11T06:45:29.437Z,1.80
2023-03-11T06:47:57.903Z,1.75
2023-03-11T06:50:27.785Z,1.52
2023-03-11T06:52:58.083Z,2.38
2023-03-11T06:55:25.895Z,1.75
2023-03-11T06:57:53.762Z,1.40
2023-03-11T07:00:21.727Z,1.80
2023-03-11T07:02:55.246Z,2.00
2023-03-11T07:05:23.581Z,1.40
2023-03-11T07:07:58.244Z,1.33
2023-03-11T07:10:27.199Z,1.40
2023-03-11T07:12:55.122Z,1.40
2023-03-11T07:15:23.705Z,1.38
2023-03-11T07:17:53.671Z,1.10
2023-03-11T07:20:22.080Z,1.25
2023-03-11T07:22:50.054Z,1.42
2023-03-11T07:25:18.089Z,1.40
2023-03-11T07:27:46.005Z,1.45
2023-03-11T07:30:14.689Z,1.30
2023-03-11T07:32:43.272Z,1.30
2023-03-11T07:35:11.291Z,1.60
2023-03-11T07:37:39.281Z,1.30
2023-03-11T07:40:07.969Z,1.27
2023-03-11T07:42:35.870Z,1.63
2023-03-11T07:45:04.265Z,1.63
2023-03-11T07:47:32.051Z,1.65
2023-03-11T07:49:59.927Z,1.40
2023-03-11T07:52:33.280Z,1.50
2023-03-11T07:55:01.219Z,1.70
2023-03-11T07:57:29.133Z,1.80
2023-03-11T07:59:56.946Z,1.70
2023-03-11T08:02:24.880Z,1.65
2023-03-11T08:04:52.743Z,1.50
2023-03-11T08:07:20.799Z,1.65
2023-03-11T08:09:48.838Z,1.40
2023-03-11T08:12:17.296Z,1.45
2023-03-11T08:14:46.755Z,1.73
2023-03-11T08:17:14.711Z,1.48
2023-03-11T08:19:42.580Z,1.50
2023-03-11T08:22:10.429Z,1.88
2023-03-11T08:24:38.303Z,1.27
2023-03-11T08:27:06.182Z,1.50
2023-03-11T08:29:34.336Z,1.70
2023-03-11T08:32:03.885Z,1.58
2023-03-11T08:34:32.939Z,1.30
2023-03-11T08:37:01.498Z,1.67
2023-03-11T08:39:29.786Z,1.30
2023-03-11T08:41:59.945Z,1.50
2023-03-11T08:44:28.406Z,1.65
2023-03-11T08:46:56.739Z,1.60
2023-03-11T08:49:27.998Z,1.50
2023-03-11T08:52:01.945Z,1.67
2023-03-11T08:54:30.261Z,1.50
2023-03-11T08:57:03.005Z,1.52
2023-03-11T08:59:31.371Z,1.88
2023-03-11T09:01:59.383Z,1.60
2023-03-11T09:04:27.792Z,1.20
2023-03-11T09:06:56.502Z,1.38
2023-03-11T09:09:24.985Z,2.08
2023-03-11T09:11:53.444Z,1.65
2023-03-11T09:14:21.888Z,1.35
2023-03-11T09:16:50.397Z,1.42
2023-03-11T09:19:18.471Z,1.30
2023-03-11T09:21:46.424Z,1.55
2023-03-11T09:24:14.369Z,1.50
2023-03-11T09:26:42.243Z,1.40
2023-03-11T09:29:10.147Z,1.35
2023-03-11T09:31:38.790Z,1.88
2023-03-11T09:34:07.241Z,1.63
2023-03-11T09:36:35.738Z,1.60
2023-03-11T09:39:04.220Z,1.10
2023-03-11T09:42:02.446Z,1.02
2023-03-11T09:45:15.656Z,1.25
2023-03-11T09:47:58.553Z,0.90
2023-03-11T09:50:30.393Z,1.85
2023-03-11T09:53:18.864Z,1.10
2023-03-11T09:55:50.215Z,1.00
2023-03-11T09:58:44.268Z,1.23
2023-03-11T10:01:37.640Z,1.10
2023-03-11T10:04:18.846Z,1.17
2023-03-11T10:06:47.949Z,1.20
2023-03-11T10:09:47.926Z,1.17
2023-03-11T10:12:34.711Z,1.20
2023-03-11T10:15:14.336Z,1.10
2023-03-11T10:18:16.063Z,0.80
2023-03-11T10:21:00.223Z,1.05
2023-03-11T10:23:51.314Z,1.52
2023-03-11T10:26:45.411Z,1.20
2023-03-11T10:29:30.257Z,1.13
2023-03-11T10:32:06.126Z,1.17
2023-03-11T10:34:48.780Z,1.02
2023-03-11T10:37:30.960Z,1.10
2023-03-11T10:40:28.163Z,1.05
2023-03-11T10:43:00.059Z,1.10
2023-03-11T10:45:33.152Z,1.40
2023-03-11T10:48:00.979Z,1.20
2023-03-11T10:50:36.396Z,1.20
2023-03-11T10:53:11.138Z,1.30
2023-03-11T10:55:47.831Z,1.50
2023-03-11T10:58:19.200Z,1.27
2023-03-11T11:00:59.373Z,1.38
2023-03-11T11:03:28.111Z,1.20
2023-03-11T11:06:05.260Z,1.33
2023-03-11T11:08:34.305Z,1.50
2023-03-11T11:11:04.095Z,1.58
2023-03-11T11:13:36.995Z,1.40
2023-03-11T11:16:17.331Z,1.67
2023-03-11T11:18:58.137Z,1.85
2023-03-11T11:21:43.383Z,1.45
2023-03-11T11:24:31.326Z,1.38
2023-03-11T11:27:17.279Z,1.70
2023-03-11T11:29:45.937Z,1.70
2023-03-11T11:32:17.499Z,1.52
2023-03-11T11:35:00.306Z,1.10
2023-03-11T11:37:32.228Z,1.40
2023-03-11T11:40:23.504Z,1.30
2023-03-11T11:43:14.670Z,1.40
2023-03-11T11:45:47.045Z,1.40
2023-03-11T11:48:42.360Z,1.30
2023-03-11T11:51:22.194Z,1.80
2023-03-11T11:54:15.361Z,1.48
2023-03-11T11:56:45.088Z,1.48
2023-03-11T11:59:18.923Z,1.50
2023-03-11T12:02:06.400Z,1.63
2023-03-11T12:04:49.425Z,1.33
2023-03-11T12:07:23.013Z,1.90
2023-03-11T12:10:19.750Z,1.80
2023-03-11T12:13:07.202Z,1.30
2023-03-11T12:16:09.918Z,1.25
2023-03-11T12:19:10.558Z,1.27
2023-03-11T12:21:57.279Z,1.15
2023-03-11T12:24:37.215Z,1.40
2023-03-11T12:27:27.890Z,1.98
2023-03-11T12:30:02.962Z,1.30
2023-03-11T12:32:53.571Z,1.20
2023-03-11T12:35:46.999Z,1.40
2023-03-11T12:38:35.746Z,1.30
2023-03-11T12:41:05.312Z,1.17
2023-03-11T12:43:36.366Z,1.58
2023-03-11T12:46:06.101Z,1.20
2023-03-11T12:48:47.376Z,1.55
2023-03-11T12:51:27.580Z,1.75
2023-03-11T12:53:56.739Z,1.30
2023-03-11T12:56:45.477Z,1.42
2023-03-11T12:59:51.197Z,1.30
2023-03-11T13:02:50.459Z,1.02
2023-03-11T13:06:16.800Z,1.40
2023-03-11T13:08:49.376Z,1.25
2023-03-11T13:11:53.210Z,1.30
2023-03-11T13:14:34.515Z,1.00
2023-03-11T13:17:25.937Z,1.27
2023-03-11T13:19:55.972Z,1.40
2023-03-11T13:22:43.894Z,1.02
2023-03-11T13:25:41.170Z,1.13
2023-03-11T13:28:18.245Z,1.42
2023-03-11T13:30:58.256Z,1.17
2023-03-11T13:34:02.243Z,1.38
2023-03-11T13:36:55.546Z,1.48
2023-03-11T13:39:49.184Z,1.33
2023-03-11T13:42:40.474Z,1.30
2023-03-11T13:45:15.154Z,0.93
2023-03-11T13:47:49.531Z,1.00
2023-03-11T13:50:44.863Z,1.02
2023-03-11T13:53:31.887Z,1.15
2023-03-11T13:56:00.124Z,1.10
2023-03-11T13:58:28.953Z,1.33
2023-03-11T14:01:01.911Z,1.20
2023-03-11T14:03:37.304Z,1.20
2023-03-11T14:06:13.222Z,1.10
2023-03-11T14:08:42.075Z,1.10
2023-03-11T14:11:10.333Z,1.13
2023-03-11T14:13:53.914Z,1.10
2023-03-11T14:16:36.253Z,1.40
2023-03-11T14:19:15.373Z,1.20
2023-03-11T14:21:49.900Z,1.20
2023-03-11T14:24:20.824Z,1.27
2023-03-11T14:26:50.125Z,1.10
2023-03-11T14:29:35.529Z,1.48
2023-03-11T14:34:48.015Z,1.20
2023-03-11T14:37:34.187Z,1.00
2023-03-11T14:40:03.511Z,1.10
2023-03-11T14:42:39.067Z,1.20
2023-03-11T14:45:17.237Z,1.52
2023-03-11T14:47:59.912Z,1.20
2023-03-11T14:50:31.768Z,1.35
2023-03-11T14:53:35.602Z,1.45
2023-03-11T14:56:19.076Z,1.60
2023-03-11T14:59:15.956Z,1.20
2023-03-11T15:01:46.762Z,1.17
2023-03-11T15:04:33.103Z,1.50
2023-03-11T15:07:04.004Z,1.10
2023-03-11T15:09:32.688Z,0.90
2023-03-11T15:12:05.770Z,1.38
2023-03-11T15:14:48.582Z,1.25
2023-03-11T15:17:34.634Z,1.30
2023-03-11T15:20:05.247Z,1.35
2023-03-11T15:22:40.910Z,1.38
2023-03-11T15:25:19.831Z,1.55
2023-03-11T15:27:47.862Z,1.20
2023-03-11T15:30:25.725Z,1.50
2023-03-11T15:32:54.553Z,1.40
2023-03-11T15:35:28.909Z,1.08
2023-03-11T15:38:32.297Z,1.10
2023-03-11T15:41:02.493Z,1.10
2023-03-11T15:43:42.194Z,1.17
2023-03-11T15:46:11.460Z,1.50
2023-03-11T15:48:39.441Z,1.77
2023-03-11T15:51:17.844Z,1.00
2023-03-11T15:53:45.721Z,0.93
2023-03-11T15:56:25.361Z,1.23
2023-03-11T15:58:53.325Z,0.80
2023-03-11T16:01:28.467Z,1.13
2023-03-11T16:03:57.345Z,1.45
2023-03-11T16:06:25.319Z,1.30
2023-03-11T16:08:53.273Z,0.93
2023-03-11T16:11:21.374Z,1.23
2023-03-11T16:13:49.214Z,1.10
2023-03-11T16:16:18.099Z,1.00
2023-03-11T16:18:46.190Z,1.48
2023-03-11T16:21:21.208Z,1.70
2023-03-11T16:23:52.181Z,1.35
2023-03-11T16:26:22.409Z,1.25
2023-03-11T16:28:50.470Z,1.55
2023-03-11T16:31:18.475Z,1.50
2023-03-11T16:33:46.453Z,1.42
2023-03-11T16:36:14.416Z,1.50
2023-03-11T16:38:46.788Z,1.60
2023-03-11T16:41:15.116Z,1.70
2023-03-11T16:43:43.387Z,1.30
2023-03-11T16:46:11.345Z,1.20
2023-03-11T16:48:39.287Z,1.30
2023-03-11T16:51:07.373Z,1.60
2023-03-11T16:53:35.459Z,1.50
2023-03-11T16:56:04.761Z,1.42
2023-03-11T16:58:35.119Z,1.42
2023-03-11T17:01:03.191Z,1.40
2023-03-11T17:03:41.049Z,1.35
2023-03-11T17:06:10.536Z,1.20
2023-03-11T17:08:38.431Z,1.30
2023-03-11T17:11:06.511Z,1.48
2023-03-11T17:13:34.470Z,1.33
2023-03-11T17:16:03.716Z,1.30
2023-03-11T17:18:31.670Z,1.73
2023-03-11T17:21:02.098Z,1.65
2023-03-11T17:23:30.487Z,1.73
2023-03-11T17:26:00.067Z,1.67
2023-03-11T17:28:29.665Z,1.70
2023-03-11T17:30:57.711Z,1.60
2023-03-11T17:33:25.661Z,1.92
2023-03-11T17:36:05.027Z,2.25
2023-03-11T17:38:33.225Z,3.13
2023-03-11T17:41:05.741Z,3.05
2023-03-11T17:43:33.766Z,3.50
2023-03-11T17:46:01.936Z,4.05
2023-03-11T17:48:30.003Z,4.55
2023-03-11T17:50:58.122Z,3.65
2023-03-11T17:53:26.100Z,3.83
2023-03-11T17:55:54.349Z,4.20
2023-03-11T17:58:22.503Z,4.60
2023-03-11T18:00:50.663Z,5.68
2023-03-11T18:03:19.821Z,5.03
2023-03-11T18:05:58.834Z,4.60
2023-03-11T18:08:28.083Z,4.53
2023-03-11T18:11:00.658Z,4.57
2023-03-11T18:13:28.855Z,4.63
2023-03-11T18:16:10.098Z,5.10
2023-03-11T18:18:38.800Z,4.75
2023-03-11T18:21:10.772Z,5.13
2023-03-11T18:23:39.492Z,5.60
2023-03-11T18:26:08.967Z,5.88
2023-03-11T18:28:36.951Z,5.70
2023-03-11T18:31:09.743Z,6.28
2023-03-11T18:33:38.361Z,7.32
2023-03-11T18:36:15.032Z,7.60
2023-03-11T18:38:43.290Z,7.32
2023-03-11T18:41:11.542Z,7.30
2023-03-11T18:43:39.484Z,7.03
2023-03-11T18:46:09.754Z,6.93
2023-03-11T18:48:38.288Z,5.65
2023-03-11T18:51:08.347Z,6.35
2023-03-11T18:53:37.012Z,5.10
2023-03-11T18:56:10.840Z,5.47
2023-03-11T18:58:38.769Z,5.35
2023-03-11T19:01:09.480Z,6.57
2023-03-11T19:03:38.315Z,7.00
2023-03-11T19:06:08.520Z,7.38
2023-03-11T19:08:36.710Z,6.68
2023-03-11T19:11:16.412Z,7.13
2023-03-11T19:13:48.129Z,7.68
2023-03-11T19:16:20.122Z,7.15
2023-03-11T19:18:48.382Z,7.20
2023-03-11T19:21:17.448Z,7.47
2023-03-11T19:23:46.659Z,6.65
2023-03-11T19:26:14.663Z,6.68
2023-03-11T19:28:42.539Z,6.57
2023-03-11T19:31:10.700Z,6.72
2023-03-11T19:33:39.196Z,4.97
2023-03-11T19:36:08.258Z,5.03
2023-03-11T19:38:36.586Z,4.65
2023-03-11T19:41:18.480Z,4.43
2023-03-11T19:43:47.864Z,4.22
2023-03-11T19:46:19.059Z,4.65
2023-03-11T19:48:47.477Z,4.18
2023-03-11T19:51:17.316Z,4.32
2023-03-11T19:53:46.063Z,3.70
2023-03-11T19:56:14.527Z,3.83
2023-03-11T19:58:42.912Z,3.97
2023-03-11T20:01:20.716Z,4.00
2023-03-11T20:03:48.745Z,4.60
2023-03-11T20:06:18.429Z,4.65
2023-03-11T20:08:46.776Z,5.82
2023-03-11T20:11:14.910Z,5.80
2023-03-11T20:13:44.130Z,6.15
2023-03-11T20:16:18.370Z,6.82
2023-03-11T20:18:50.260Z,8.02
2023-03-11T20:21:18.834Z,8.82
2023-03-11T20:23:48.776Z,8.32
2023-03-11T20:26:18.879Z,8.25
2023-03-11T20:28:47.219Z,7.82
2023-03-11T20:31:21.219Z,7.63
2023-03-11T20:33:51.598Z,8.07
2023-03-11T20:36:26.435Z,7.80
2023-03-11T20:38:55.617Z,7.85
2023-03-11T20:41:25.045Z,8.27
2023-03-11T20:43:55.177Z,8.67
2023-03-11T20:46:23.611Z,8.13
2023-03-11T20:48:51.718Z,8.93
2023-03-11T20:51:20.519Z,10.00
2023-03-11T20:53:49.304Z,9.60
2023-03-11T20:56:19.924Z,12.83
2023-03-11T20:58:51.140Z,10.40
2023-03-11T21:01:23.191Z,11.33
2023-03-11T21:03:54.975Z,11.00
2023-03-11T21:06:30.623Z,10.33
2023-03-11T21:09:01.131Z,10.97
2023-03-11T21:11:29.811Z,10.40
2023-03-11T21:13:58.392Z,9.93
2023-03-11T21:16:27.067Z,9.90
2023-03-11T21:18:55.518Z,11.27
2023-03-11T21:21:23.705Z,12.03
2023-03-11T21:23:51.676Z,13.10
2023-03-11T21:26:19.582Z,11.17
2023-03-11T21:28:47.720Z,11.50
2023-03-11T21:31:20.990Z,11.37
2023-03-11T21:33:52.805Z,11.77
2023-03-11T21:36:20.786Z,11.23
2023-03-11T21:38:49.624Z,10.83
2023-03-11T21:41:26.262Z,10.27
2023-03-11T21:43:55.832Z,10.27
2023-03-11T21:46:27.274Z,9.93
2023-03-11T21:48:55.527Z,10.73
2023-03-11T21:51:23.932Z,10.20
2023-03-11T21:53:52.277Z,11.80
2023-03-11T21:56:20.683Z,11.80
2023-03-11T21:58:49.937Z,12.57
2023-03-11T22:01:18.210Z,11.67
2023-03-11T22:03:47.465Z,10.57
2023-03-11T22:06:16.095Z,12.53
2023-03-11T22:08:44.298Z,13.57
2023-03-11T22:11:17.767Z,13.47
2023-03-11T22:13:48.117Z,14.07
2023-03-11T22:16:16.713Z,14.40
2023-03-11T22:18:45.369Z,14.97
2023-03-11T22:21:17.422Z,15.57
2023-03-11T22:23:46.388Z,14.27
2023-03-11T22:26:15.889Z,14.50
2023-03-11T22:28:43.929Z,13.07
2023-03-11T22:31:14.057Z,12.57
2023-03-11T22:33:42.508Z,12.33
2023-03-11T22:36:11.317Z,12.37
2023-03-11T22:38:44.402Z,13.23
2023-03-11T22:41:14.509Z,13.93
2023-03-11T22:43:42.542Z,12.83
2023-03-11T22:46:10.609Z,13.43
2023-03-11T22:48:38.559Z,12.33
2023-03-11T22:51:07.026Z,12.90
2023-03-11T22:53:35.136Z,12.97
2023-03-11T22:56:08.907Z,14.60
2023-03-11T22:58:37.208Z,13.87
2023-03-11T23:01:05.971Z,14.00
2023-03-11T23:03:35.522Z,14.47
2023-03-11T23:06:06.943Z,14.40
2023-03-11T23:08:35.729Z,14.60
2023-03-11T23:11:06.571Z,13.80
2023-03-11T23:13:36.109Z,14.77
2023-03-11T23:16:10.174Z,15.23
2023-03-11T23:18:39.042Z,14.45
2023-03-11T23:21:15.860Z,14.00
2023-03-11T23:23:44.215Z,13.97
2023-03-11T23:26:13.433Z,13.90
2023-03-11T23:28:41.949Z,12.90
2023-03-11T23:31:12.513Z,12.67
2023-03-11T23:33:41.373Z,12.17
2023-03-11T23:36:11.605Z,13.60
2023-03-11T23:38:40.303Z,11.85
2023-03-11T23:41:13.834Z,12.83
2023-03-11T23:43:42.232Z,12.73
2023-03-11T23:46:10.408Z,12.23
2023-03-11T23:48:39.112Z,11.90
2023-03-11T23:51:08.648Z,10.10
2023-03-11T23:53:37.052Z,10.20
2023-03-11T23:56:11.580Z,10.07
2023-03-11T23:58:39.758Z,10.30
